Time;durP1;ratioP1;P1;durP2;ratioP2;P2;SDS_P1;SDS_P2;PMS_P1;PMS_P2;Temp;Humidity;BMP_temperature;BMP_pressure;BME280_temperature;BME280_humidity;BME280_pressure;Samples;Min_cycle;Max_cycle;Signal;HPM_P1;HPM_P2
2023/07/03 00:00:15;;;;;;;4.93;4.03;;;;;;;;;;5023160;28;20279;-80
2023/07/03 00:02:42;;;;;;;5.00;4.50;;;;;;;;;;5025521;28;20202;-80
2023/07/03 00:05:11;;;;;;;4.73;4.23;;;;;;;;;;5026069;28;20613;-80
2023/07/03 00:07:38;;;;;;;5.47;4.43;;;;;;;;;;5025359;28;20337;-80
2023/07/03 00:10:08;;;;;;;5.77;4.10;;;;;;;;;;5029853;28;20216;-80
2023/07/03 00:12:35;;;;;;;9.20;4.20;;;;;;;;;;5028973;28;20202;-80
2023/07/03 00:15:03;;;;;;;5.20;4.70;;;;;;;;;;5029137;28;20280;-80
2023/07/03 00:17:30;;;;;;;5.17;4.40;;;;;;;;;;5030705;28;20198;-80
2023/07/03 00:19:57;;;;;;;5.67;4.77;;;;;;;;;;5030211;28;20219;-81
2023/07/03 00:22:24;;;;;;;5.50;4.60;;;;;;;;;;5016224;28;20205;-80
2023/07/03 00:24:51;;;;;;;6.77;5.43;;;;;;;;;;5028898;28;20226;-80
2023/07/03 00:27:20;;;;;;;6.90;5.07;;;;;;;;;;5028829;28;20198;-82
2023/07/03 00:29:47;;;;;;;6.23;5.10;;;;;;;;;;5041217;28;20700;-80
2023/07/03 00:32:14;;;;;;;6.50;5.27;;;;;;;;;;5031923;28;20214;-80
2023/07/03 00:34:41;;;;;;;5.53;5.03;;;;;;;;;;5029766;28;20202;-80
2023/07/03 00:37:08;;;;;;;5.47;4.67;;;;;;;;;;5028929;28;20202;-80
2023/07/03 00:39:35;;;;;;;7.77;4.30;;;;;;;;;;5030363;28;20203;-80
2023/07/03 00:42:02;;;;;;;5.03;4.27;;;;;;;;;;5012712;28;20203;-81
2023/07/03 00:44:31;;;;;;;6.40;4.77;;;;;;;;;;5028901;28;20222;-80
2023/07/03 00:46:58;;;;;;;5.40;4.90;;;;;;;;;;5012062;28;20211;-80
2023/07/03 00:49:27;;;;;;;5.53;4.77;;;;;;;;;;5030261;28;20622;-81
2023/07/03 00:51:56;;;;;;;6.47;4.87;;;;;;;;;;5028796;28;20203;-80
2023/07/03 00:54:24;;;;;;;5.10;4.60;;;;;;;;;;5030201;28;20689;-81
2023/07/03 00:56:51;;;;;;;7.53;5.00;;;;;;;;;;5029569;28;20207;-81
2023/07/03 00:59:18;;;;;;;6.30;4.23;;;;;;;;;;5029773;28;20203;-80
2023/07/03 01:01:52;;;;;;;4.40;3.77;;;;;;;;;;5028953;28;20206;-81
2023/07/03 01:04:23;;;;;;;5.90;4.73;;;;;;;;;;5030456;28;20277;-80
2023/07/03 01:06:54;;;;;;;5.57;4.73;;;;;;;;;;5030597;28;20206;-81
2023/07/03 01:09:24;;;;;;;6.87;5.53;;;;;;;;;;5029148;28;20257;-81
2023/07/03 01:11:52;;;;;;;4.97;4.47;;;;;;;;;;5030608;28;20215;-80
2023/07/03 01:14:20;;;;;;;5.57;4.60;;;;;;;;;;5032461;28;20203;-80
2023/07/03 01:16:50;;;;;;;5.57;4.77;;;;;;;;;;5032688;28;20241;-80
2023/07/03 01:19:20;;;;;;;5.43;4.93;;;;;;;;;;5016595;28;20202;-80
2023/07/03 01:21:53;;;;;;;5.93;4.93;;;;;;;;;;5032642;28;20284;-80
2023/07/03 01:24:31;;;;;;;5.13;4.63;;;;;;;;;;5020352;28;20222;-80
2023/07/03 01:26:58;;;;;;;5.43;4.90;;;;;;;;;;5033284;28;20207;-81
2023/07/03 01:29:26;;;;;;;6.07;5.47;;;;;;;;;;5032807;28;20228;-81
2023/07/03 01:31:53;;;;;;;6.13;5.50;;;;;;;;;;5032008;28;20206;-81
2023/07/03 01:34:21;;;;;;;6.63;5.60;;;;;;;;;;5031909;28;20206;-81
2023/07/03 01:36:48;;;;;;;6.17;5.07;;;;;;;;;;5032129;28;20207;-80
2023/07/03 01:39:15;;;;;;;6.27;5.43;;;;;;;;;;5033648;28;20582;-80
2023/07/03 01:41:44;;;;;;;6.83;6.00;;;;;;;;;;5030367;28;20200;-80
2023/07/03 01:44:11;;;;;;;5.80;5.27;;;;;;;;;;5033156;28;20234;-81
2023/07/03 01:46:38;;;;;;;6.10;5.50;;;;;;;;;;5031221;28;20218;-81
2023/07/03 01:49:11;;;;;;;5.33;4.63;;;;;;;;;;5032872;28;20202;-81
2023/07/03 01:51:42;;;;;;;5.47;4.73;;;;;;;;;;5032882;28;20195;-81
2023/07/03 01:54:15;;;;;;;6.03;5.43;;;;;;;;;;5033185;28;20202;-81
2023/07/03 01:56:45;;;;;;;5.83;5.33;;;;;;;;;;5031169;28;20737;-81
2023/07/03 01:59:14;;;;;;;8.30;4.83;;;;;;;;;;5015631;28;20206;-80
2023/07/03 02:01:46;;;;;;;5.33;4.80;;;;;;;;;;5032509;28;20669;-79
2023/07/03 02:04:23;;;;;;;7.77;5.43;;;;;;;;;;5032939;28;20313;-80
2023/07/03 02:06:52;;;;;;;5.30;4.80;;;;;;;;;;5031423;28;20202;-80
2023/07/03 02:09:19;;;;;;;5.20;4.70;;;;;;;;;;5015510;28;20210;-81
2023/07/03 02:11:48;;;;;;;6.93;5.03;;;;;;;;;;5031293;28;20215;-80
2023/07/03 02:14:15;;;;;;;5.43;4.40;;;;;;;;;;5031426;28;20253;-80
2023/07/03 02:16:46;;;;;;;9.20;5.17;;;;;;;;;;5031658;28;20226;-80
2023/07/03 02:19:14;;;;;;;8.37;4.70;;;;;;;;;;5015570;28;20206;-80
2023/07/03 02:21:43;;;;;;;5.27;4.63;;;;;;;;;;5032360;28;20198;-80
2023/07/03 02:24:11;;;;;;;5.77;4.67;;;;;;;;;;5029802;28;20778;-80
2023/07/03 02:26:38;;;;;;;6.03;4.80;;;;;;;;;;5032475;28;20207;-80
2023/07/03 02:29:06;;;;;;;5.53;5.03;;;;;;;;;;5014463;28;20261;-80
2023/07/03 02:31:33;;;;;;;11.60;5.70;;;;;;;;;;5030917;28;20649;-80
2023/07/03 02:34:00;;;;;;;5.83;4.93;;;;;;;;;;5031088;28;20206;-80
2023/07/03 02:36:29;;;;;;;5.60;4.77;;;;;;;;;;5031465;28;20206;-81
2023/07/03 02:38:57;;;;;;;4.77;4.37;;;;;;;;;;5031955;28;20213;-81
2023/07/03 02:41:24;;;;;;;6.07;5.37;;;;;;;;;;5031312;28;20225;-81
2023/07/03 02:43:51;;;;;;;6.20;5.60;;;;;;;;;;5018595;28;20203;-81
2023/07/03 02:46:20;;;;;;;5.60;4.80;;;;;;;;;;5031249;28;20210;-80
2023/07/03 02:48:47;;;;;;;5.57;5.07;;;;;;;;;;5031109;28;20581;-80
2023/07/03 02:51:15;;;;;;;7.13;4.30;;;;;;;;;;5011630;28;20690;-80
2023/07/03 02:53:42;;;;;;;9.03;5.20;;;;;;;;;;5030790;28;20206;-80
2023/07/03 02:56:10;;;;;;;5.40;4.90;;;;;;;;;;5031593;28;20206;-80
2023/07/03 02:58:37;;;;;;;6.10;5.37;;;;;;;;;;5030544;28;20210;-80
2023/07/03 03:01:04;;;;;;;7.53;6.20;;;;;;;;;;5029011;28;20602;-80
2023/07/03 03:03:33;;;;;;;6.13;5.43;;;;;;;;;;5010886;28;20253;-81
2023/07/03 03:06:01;;;;;;;6.07;5.47;;;;;;;;;;5027557;28;20223;-80
2023/07/03 03:08:28;;;;;;;6.47;5.27;;;;;;;;;;5014592;28;20225;-81
2023/07/03 03:10:55;;;;;;;5.97;5.30;;;;;;;;;;5031435;28;20207;-81
2023/07/03 03:13:22;;;;;;;6.87;6.27;;;;;;;;;;5031489;28;20202;-80
2023/07/03 03:15:49;;;;;;;7.33;6.63;;;;;;;;;;5030233;28;20614;-80
2023/07/03 03:18:16;;;;;;;7.07;6.07;;;;;;;;;;5031020;28;20616;-81
2023/07/03 03:20:46;;;;;;;8.73;6.40;;;;;;;;;;5031530;28;20206;-80
2023/07/03 03:23:14;;;;;;;7.83;6.13;;;;;;;;;;5014044;28;20579;-80
2023/07/03 03:25:41;;;;;;;7.00;6.30;;;;;;;;;;5030508;28;20237;-81
2023/07/03 03:28:08;;;;;;;6.13;5.50;;;;;;;;;;5030198;28;20202;-80
2023/07/03 03:30:35;;;;;;;6.83;6.20;;;;;;;;;;5029982;28;20652;-81
2023/07/03 03:33:02;;;;;;;7.10;6.40;;;;;;;;;;5029590;28;20595;-81
2023/07/03 03:35:30;;;;;;;8.00;6.43;;;;;;;;;;5014087;28;20289;-81
2023/07/03 03:37:58;;;;;;;7.77;6.80;;;;;;;;;;4998174;28;20211;-81
2023/07/03 03:40:25;;;;;;;6.67;6.07;;;;;;;;;;5024251;28;20231;-81
2023/07/03 03:42:53;;;;;;;6.60;6.00;;;;;;;;;;5009919;28;20682;-81
2023/07/03 03:45:20;;;;;;;7.93;6.67;;;;;;;;;;5023514;28;20226;-81
2023/07/03 03:47:47;;;;;;;8.47;6.93;;;;;;;;;;5029516;28;20213;-81
2023/07/03 03:50:14;;;;;;;7.03;6.30;;;;;;;;;;5030649;28;20230;-80
2023/07/03 03:52:42;;;;;;;12.10;7.50;;;;;;;;;;5031089;28;20257;-80
2023/07/03 03:55:11;;;;;;;7.73;6.90;;;;;;;;;;5013557;28;21090;-81
2023/07/03 03:57:38;;;;;;;8.50;7.30;;;;;;;;;;5024092;28;20191;-77
2023/07/03 04:00:08;;;;;;;10.10;7.53;;;;;;;;;;5018819;28;20202;-82
2023/07/03 04:02:35;;;;;;;8.10;7.40;;;;;;;;;;5028879;28;20228;-83
2023/07/03 04:05:02;;;;;;;8.63;7.13;;;;;;;;;;5032626;28;20234;-84
2023/07/03 04:07:29;;;;;;;8.77;7.87;;;;;;;;;;5030306;28;20693;-83
2023/07/03 04:09:56;;;;;;;9.00;7.43;;;;;;;;;;5030663;28;20606;-83
2023/07/03 04:12:24;;;;;;;8.83;8.00;;;;;;;;;;5028551;28;20226;-84
2023/07/03 04:14:51;;;;;;;8.27;7.47;;;;;;;;;;5031015;28;20210;-84
2023/07/03 04:17:18;;;;;;;8.60;7.63;;;;;;;;;;5029802;28;20207;-83
2023/07/03 04:19:44;;;;;;;9.73;8.73;;;;;;;;;;5030778;28;20207;-83
2023/07/03 04:22:11;;;;;;;9.27;8.37;;;;;;;;;;5030090;28;20206;-84
2023/07/03 04:24:38;;;;;;;9.37;7.90;;;;;;;;;;5023393;28;20230;-84
2023/07/03 04:27:08;;;;;;;8.73;7.90;;;;;;;;;;5030485;28;20700;-83
2023/07/03 04:29:36;;;;;;;9.10;8.30;;;;;;;;;;5030504;28;20681;-83
2023/07/03 04:32:03;;;;;;;10.33;8.13;;;;;;;;;;5031590;28;20201;-83
2023/07/03 04:34:30;;;;;;;10.13;8.37;;;;;;;;;;5020438;28;20222;-83
2023/07/03 04:36:56;;;;;;;10.57;9.57;;;;;;;;;;5027969;28;20704;-83
2023/07/03 04:39:24;;;;;;;10.40;9.33;;;;;;;;;;5029952;28;20209;-82
2023/07/03 04:41:51;;;;;;;10.83;9.87;;;;;;;;;;5030316;28;20322;-84
2023/07/03 04:44:18;;;;;;;12.07;10.87;;;;;;;;;;5030307;28;20202;-83
2023/07/03 04:46:46;;;;;;;11.83;10.63;;;;;;;;;;5030161;28;20199;-83
2023/07/03 04:49:13;;;;;;;12.10;10.67;;;;;;;;;;5034077;28;20269;-83
2023/07/03 04:51:39;;;;;;;12.17;10.90;;;;;;;;;;5033925;28;20195;-83
2023/07/03 04:54:06;;;;;;;10.40;9.37;;;;;;;;;;5033995;28;20198;-83
2023/07/03 04:56:34;;;;;;;11.33;10.33;;;;;;;;;;5034364;28;20210;-84
2023/07/03 04:59:01;;;;;;;10.73;9.67;;;;;;;;;;5033910;28;20203;-83
2023/07/03 05:01:29;;;;;;;10.33;9.33;;;;;;;;;;5033799;28;20217;-83
2023/07/03 05:03:58;;;;;;;10.30;9.20;;;;;;;;;;5033999;28;20207;-83
2023/07/03 05:06:25;;;;;;;10.77;9.67;;;;;;;;;;5033802;28;20258;-84
2023/07/03 05:08:52;;;;;;;12.00;9.13;;;;;;;;;;5033785;28;20214;-83
2023/07/03 05:11:19;;;;;;;10.77;9.77;;;;;;;;;;5033805;28;20291;-83
2023/07/03 05:13:46;;;;;;;10.67;9.67;;;;;;;;;;5034031;28;20210;-83
2023/07/03 05:16:14;;;;;;;11.80;9.80;;;;;;;;;;5033607;28;20284;-83
2023/07/03 05:18:40;;;;;;;10.13;9.23;;;;;;;;;;5033578;28;20655;-83
2023/07/03 05:21:10;;;;;;;11.30;10.10;;;;;;;;;;5033393;28;20661;-83
2023/07/03 05:23:37;;;;;;;11.63;10.53;;;;;;;;;;5034051;28;20209;-83
2023/07/03 05:26:04;;;;;;;16.17;11.43;;;;;;;;;;5033466;28;20697;-83
2023/07/03 05:28:31;;;;;;;12.17;11.07;;;;;;;;;;5033468;28;20664;-83
2023/07/03 05:30:59;;;;;;;13.43;11.60;;;;;;;;;;5033619;28;20205;-83
2023/07/03 05:33:26;;;;;;;13.70;11.47;;;;;;;;;;5033127;28;20213;-83
2023/07/03 05:35:54;;;;;;;12.70;11.50;;;;;;;;;;5034137;28;20206;-83
2023/07/03 05:38:22;;;;;;;12.90;11.73;;;;;;;;;;5032870;28;20207;-83
2023/07/03 05:40:50;;;;;;;12.47;11.27;;;;;;;;;;5033723;28;20210;-83
2023/07/03 05:43:17;;;;;;;13.30;12.00;;;;;;;;;;5033184;28;20203;-83
2023/07/03 05:45:43;;;;;;;13.13;11.83;;;;;;;;;;5033590;28;20295;-83
2023/07/03 05:48:10;;;;;;;11.87;10.77;;;;;;;;;;5032645;28;20807;-83
2023/07/03 05:50:37;;;;;;;13.00;11.67;;;;;;;;;;5033678;28;20731;-83
2023/07/03 05:53:04;;;;;;;14.57;12.00;;;;;;;;;;5033007;28;20747;-83
2023/07/03 05:55:32;;;;;;;12.40;11.20;;;;;;;;;;5032916;28;20206;-83
2023/07/03 05:57:59;;;;;;;13.67;12.27;;;;;;;;;;5032043;28;20199;-83
2023/07/03 06:00:27;;;;;;;11.83;10.67;;;;;;;;;;5032408;28;20206;-83
2023/07/03 06:02:57;;;;;;;14.17;12.20;;;;;;;;;;5032712;28;20677;-83
2023/07/03 06:05:23;;;;;;;11.57;10.43;;;;;;;;;;5033225;28;20226;-83
2023/07/03 06:07:50;;;;;;;12.27;10.70;;;;;;;;;;5032571;28;20391;-83
2023/07/03 06:10:17;;;;;;;13.07;11.77;;;;;;;;;;5032610;28;20210;-83
2023/07/03 06:12:45;;;;;;;13.03;11.70;;;;;;;;;;5032611;28;20677;-83
2023/07/03 06:15:12;;;;;;;12.83;11.53;;;;;;;;;;5032876;28;20238;-83
2023/07/03 06:17:40;;;;;;;13.07;11.77;;;;;;;;;;5032001;28;20203;-83
2023/07/03 06:20:10;;;;;;;12.30;11.20;;;;;;;;;;5033140;28;20213;-83
2023/07/03 06:22:37;;;;;;;12.40;11.03;;;;;;;;;;5032489;28;20573;-83
2023/07/03 06:25:06;;;;;;;12.10;10.90;;;;;;;;;;5032418;28;20746;-83
2023/07/03 06:27:33;;;;;;;12.37;11.17;;;;;;;;;;5032107;28;20741;-83
2023/07/03 06:30:01;;;;;;;12.40;11.20;;;;;;;;;;5032548;28;20641;-83
2023/07/03 06:32:28;;;;;;;12.33;11.13;;;;;;;;;;5032052;28;20281;-83
2023/07/03 06:34:55;;;;;;;15.70;11.37;;;;;;;;;;5033000;28;20206;-83
2023/07/03 06:37:21;;;;;;;13.13;11.77;;;;;;;;;;5032191;28;20739;-83
2023/07/03 06:39:48;;;;;;;12.77;11.67;;;;;;;;;;5032253;28;20198;-83
2023/07/03 06:42:15;;;;;;;11.47;10.37;;;;;;;;;;5032137;28;20203;-83
2023/07/03 06:44:43;;;;;;;11.80;10.07;;;;;;;;;;5032442;28;20214;-83
2023/07/03 06:47:11;;;;;;;11.67;10.37;;;;;;;;;;5031377;28;20226;-83
2023/07/03 06:49:38;;;;;;;12.30;11.20;;;;;;;;;;5032051;28;20261;-83
2023/07/03 06:52:05;;;;;;;13.17;11.00;;;;;;;;;;5032040;28;20206;-83
2023/07/03 06:54:32;;;;;;;12.50;11.20;;;;;;;;;;5032301;28;20214;-83
2023/07/03 06:56:59;;;;;;;12.00;10.90;;;;;;;;;;5031491;28;20210;-83
2023/07/03 06:59:26;;;;;;;12.73;10.33;;;;;;;;;;5032769;28;20210;-83
2023/07/03 07:01:54;;;;;;;12.33;11.03;;;;;;;;;;5031968;28;20672;-83
2023/07/03 07:04:22;;;;;;;11.40;10.20;;;;;;;;;;5031358;28;20695;-83
2023/07/03 07:06:49;;;;;;;12.93;11.63;;;;;;;;;;5031715;28;20706;-83
2023/07/03 07:09:17;;;;;;;14.10;10.83;;;;;;;;;;5031712;28;20265;-84
2023/07/03 07:11:46;;;;;;;12.60;11.07;;;;;;;;;;5031613;28;20212;-83
2023/07/03 07:14:14;;;;;;;13.03;11.63;;;;;;;;;;5031829;28;20232;-83
2023/07/03 07:16:42;;;;;;;11.67;10.47;;;;;;;;;;5031807;28;20257;-84
2023/07/03 07:19:10;;;;;;;12.37;10.40;;;;;;;;;;5031388;28;20294;-83
2023/07/03 07:21:41;;;;;;;12.30;11.20;;;;;;;;;;5032106;28;20202;-84
2023/07/03 07:24:18;;;;;;;12.20;10.87;;;;;;;;;;5030971;28;20199;-84
2023/07/03 07:26:46;;;;;;;12.53;11.43;;;;;;;;;;5031713;28;20237;-83
2023/07/03 07:29:13;;;;;;;11.60;10.38;;;;;;;;;;5031247;28;20612;-84
2023/07/03 07:31:40;;;;;;;11.57;10.47;;;;;;;;;;5031349;28;20210;-84
2023/07/03 07:34:08;;;;;;;12.80;11.47;;;;;;;;;;5031230;28;20218;-83
2023/07/03 07:36:36;;;;;;;13.85;10.00;;;;;;;;;;5031090;28;20206;-83
2023/07/03 07:39:04;;;;;;;12.38;11.05;;;;;;;;;;5030943;28;20207;-84
2023/07/03 07:41:31;;;;;;;11.43;10.43;;;;;;;;;;5031451;28;20260;-83
2023/07/03 07:43:59;;;;;;;10.95;9.85;;;;;;;;;;5030897;28;20215;-83
2023/07/03 07:46:28;;;;;;;15.98;11.00;;;;;;;;;;5031376;28;20224;-84
2023/07/03 07:48:55;;;;;;;14.75;10.27;;;;;;;;;;5031100;28;20230;-84
2023/07/03 07:51:22;;;;;;;10.93;10.02;;;;;;;;;;5030839;28;20662;-84
2023/07/03 07:53:49;;;;;;;12.52;11.32;;;;;;;;;;5031149;28;21260;-83
2023/07/03 07:56:17;;;;;;;11.02;10.02;;;;;;;;;;5030780;28;20293;-84
2023/07/03 07:58:44;;;;;;;11.80;10.60;;;;;;;;;;5030911;28;20203;-84
2023/07/03 08:01:11;;;;;;;12.68;10.57;;;;;;;;;;5031180;28;20207;-84
2023/07/03 08:03:40;;;;;;;12.93;11.73;;;;;;;;;;5030615;28;20210;-83
2023/07/03 08:06:08;;;;;;;11.80;10.43;;;;;;;;;;5031073;28;20630;-84
2023/07/03 08:08:35;;;;;;;12.13;10.13;;;;;;;;;;5030610;28;20245;-83
2023/07/03 08:11:03;;;;;;;12.82;11.52;;;;;;;;;;5030530;28;20221;-84
2023/07/03 08:13:33;;;;;;;11.98;10.90;;;;;;;;;;5030721;28;20213;-84
2023/07/03 08:16:00;;;;;;;11.05;10.05;;;;;;;;;;5031044;28;20229;-84
2023/07/03 08:18:27;;;;;;;11.15;10.15;;;;;;;;;;5030445;28;20199;-84
2023/07/03 08:20:54;;;;;;;10.48;9.38;;;;;;;;;;5030988;28;20209;-84
2023/07/03 08:23:21;;;;;;;11.43;10.10;;;;;;;;;;5034113;28;20697;-84
2023/07/03 08:25:50;;;;;;;10.15;9.25;;;;;;;;;;5034975;28;20321;-84
2023/07/03 08:28:17;;;;;;;11.25;10.13;;;;;;;;;;5023429;28;20207;-84
2023/07/03 08:30:45;;;;;;;11.13;10.13;;;;;;;;;;5033448;28;20217;-83
2023/07/03 08:33:13;;;;;;;11.60;10.50;;;;;;;;;;5034593;28;20592;-84
2023/07/03 08:35:39;;;;;;;10.60;9.57;;;;;;;;;;5034465;28;20194;-84
2023/07/03 08:38:06;;;;;;;10.02;9.02;;;;;;;;;;5034462;28;20206;-84
2023/07/03 08:40:33;;;;;;;11.20;10.10;;;;;;;;;;5034428;28;20195;-84
2023/07/03 08:43:02;;;;;;;11.70;10.55;;;;;;;;;;5034775;28;20202;-84
2023/07/03 08:45:34;;;;;;;11.73;10.73;;;;;;;;;;5021717;28;20301;-84
2023/07/03 08:48:06;;;;;;;12.27;10.85;;;;;;;;;;5034485;28;20207;-84
2023/07/03 08:50:34;;;;;;;12.20;11.00;;;;;;;;;;5034716;28;20202;-84
2023/07/03 08:53:03;;;;;;;19.73;17.85;;;;;;;;;;5034484;28;20207;-84
2023/07/03 08:55:35;;;;;;;19.17;16.60;;;;;;;;;;5033949;28;20199;-84
2023/07/03 08:58:02;;;;;;;11.50;10.50;;;;;;;;;;5033923;28;20309;-83
2023/07/03 09:00:31;;;;;;;11.50;10.40;;;;;;;;;;5034632;28;20202;-84
2023/07/03 09:03:04;;;;;;;10.05;9.05;;;;;;;;;;5034055;28;20203;-85
2023/07/03 09:05:36;;;;;;;9.88;8.88;;;;;;;;;;5034359;28;20289;-85
2023/07/03 09:08:06;;;;;;;9.27;8.38;;;;;;;;;;5033740;28;20232;-84
2023/07/03 09:10:36;;;;;;;10.35;9.15;;;;;;;;;;5034133;28;20213;-84
2023/07/03 09:13:07;;;;;;;10.25;9.25;;;;;;;;;;5033870;28;20210;-85
2023/07/03 09:15:37;;;;;;;10.02;8.75;;;;;;;;;;5033820;28;20234;-85
2023/07/03 09:18:11;;;;;;;11.15;9.38;;;;;;;;;;5034147;28;20207;-84
2023/07/03 09:20:39;;;;;;;11.88;10.77;;;;;;;;;;5033682;28;20210;-84
2023/07/03 09:23:09;;;;;;;11.40;10.15;;;;;;;;;;5033277;28;20695;-85
2023/07/03 09:25:42;;;;;;;13.95;12.38;;;;;;;;;;5033710;28;20202;-84
2023/07/03 09:28:10;;;;;;;11.82;10.73;;;;;;;;;;5033898;28;20226;-85
2023/07/03 09:30:37;;;;;;;12.88;11.45;;;;;;;;;;5033347;28;20753;-85
2023/07/03 09:33:03;;;;;;;10.63;9.55;;;;;;;;;;5033138;28;20539;-85
2023/07/03 09:35:36;;;;;;;11.15;10.15;;;;;;;;;;5033570;28;20195;-85
2023/07/03 09:38:05;;;;;;;10.05;9.15;;;;;;;;;;5033662;28;20199;-84
2023/07/03 09:40:34;;;;;;;11.05;9.70;;;;;;;;;;5033622;28;20659;-85
2023/07/03 09:43:02;;;;;;;11.25;10.15;;;;;;;;;;5033814;28;20199;-85
2023/07/03 09:45:31;;;;;;;11.07;9.95;;;;;;;;;;5033913;28;20222;-85
2023/07/03 09:47:59;;;;;;;10.85;9.75;;;;;;;;;;5033503;28;20656;-85
2023/07/03 09:50:28;;;;;;;10.85;9.40;;;;;;;;;;5033452;28;20203;-85
2023/07/03 09:52:57;;;;;;;10.25;9.35;;;;;;;;;;5032821;28;20206;-83
2023/07/03 09:55:25;;;;;;;10.77;9.68;;;;;;;;;;5033469;28;20210;-85
2023/07/03 09:57:51;;;;;;;11.98;10.90;;;;;;;;;;5032705;28;20627;-85
2023/07/03 10:00:20;;;;;;;11.00;9.93;;;;;;;;;;5033312;28;20202;-85
2023/07/03 10:02:48;;;;;;;9.40;8.60;;;;;;;;;;5019916;28;20245;-84
2023/07/03 10:05:16;;;;;;;10.05;9.15;;;;;;;;;;5033034;28;20199;-86
2023/07/03 10:07:45;;;;;;;10.02;9.13;;;;;;;;;;5032951;28;20343;-85
2023/07/03 10:10:16;;;;;;;9.15;8.43;;;;;;;;;;5033381;28;20206;-85
2023/07/03 10:12:45;;;;;;;9.88;8.98;;;;;;;;;;5032359;28;20628;-85
2023/07/03 10:15:17;;;;;;;9.80;8.93;;;;;;;;;;5033031;28;20233;-84
2023/07/03 10:17:50;;;;;;;10.68;9.35;;;;;;;;;;5032462;28;20202;-85
2023/07/03 10:20:23;;;;;;;11.07;10.10;;;;;;;;;;5032595;28;20206;-84
2023/07/03 10:22:51;;;;;;;9.73;8.93;;;;;;;;;;5032735;28;20214;-84
2023/07/03 10:25:33;;;;;;;12.30;10.35;;;;;;;;;;5032676;28;20290;-84
2023/07/03 10:28:07;;;;;;;11.98;10.73;;;;;;;;;;5032461;28;20289;-84
2023/07/03 10:30:36;;;;;;;11.23;10.13;;;;;;;;;;5032451;28;20206;-84
2023/07/03 10:33:06;;;;;;;11.27;10.38;;;;;;;;;;5032466;28;20210;-84
2023/07/03 10:35:33;;;;;;;10.90;9.75;;;;;;;;;;5032662;28;20198;-84
2023/07/03 10:38:03;;;;;;;12.02;10.93;;;;;;;;;;5032492;28;20195;-84
2023/07/03 10:40:35;;;;;;;10.80;9.90;;;;;;;;;;5032074;28;20210;-84
2023/07/03 10:43:04;;;;;;;10.30;9.40;;;;;;;;;;5032599;28;20206;-83
2023/07/03 10:45:33;;;;;;;11.63;10.63;;;;;;;;;;5018739;28;20209;-85
2023/07/03 10:48:03;;;;;;;11.68;10.68;;;;;;;;;;5031996;28;20663;-84
2023/07/03 10:50:33;;;;;;;10.77;9.88;;;;;;;;;;5032034;28;20265;-84
2023/07/03 10:53:08;;;;;;;11.57;10.57;;;;;;;;;;5031438;28;20651;-84
2023/07/03 10:55:41;;;;;;;11.32;10.30;;;;;;;;;;5032032;28;20285;-84
2023/07/03 10:58:14;;;;;;;10.75;9.75;;;;;;;;;;5031712;28;20241;-84
2023/07/03 11:00:51;;;;;;;10.80;9.82;;;;;;;;;;5032328;28;20210;-84
2023/07/03 11:03:23;;;;;;;11.77;9.73;;;;;;;;;;5031246;28;20195;-84
2023/07/03 11:05:55;;;;;;;10.30;9.20;;;;;;;;;;5032084;28;20206;-83
2023/07/03 11:08:26;;;;;;;10.27;9.38;;;;;;;;;;5031593;28;20237;-84
2023/07/03 11:10:59;;;;;;;10.20;9.40;;;;;;;;;;5031815;28;20264;-83
2023/07/03 11:13:30;;;;;;;10.75;9.65;;;;;;;;;;5031344;28;20207;-84
2023/07/03 11:16:07;;;;;;;10.88;9.98;;;;;;;;;;5031614;28;20226;-84
2023/07/03 11:18:52;;;;;;;11.27;10.23;;;;;;;;;;5031843;28;20663;-84
2023/07/03 11:21:38;;;;;;;10.45;9.55;;;;;;;;;;5031435;28;20674;-84
2023/07/03 11:24:12;;;;;;;10.93;9.90;;;;;;;;;;5031548;28;20234;-83
2023/07/03 11:26:42;;;;;;;10.07;9.18;;;;;;;;;;5031725;28;20216;-83
2023/07/03 11:29:10;;;;;;;9.52;8.43;;;;;;;;;;5030984;28;20202;-84
2023/07/03 11:31:39;;;;;;;8.80;8.00;;;;;;;;;;5031291;28;20677;-84
2023/07/03 11:34:07;;;;;;;9.82;9.02;;;;;;;;;;5031153;28;20639;-84
2023/07/03 11:36:42;;;;;;;11.45;10.25;;;;;;;;;;5031372;28;20211;-84
2023/07/03 11:39:15;;;;;;;9.75;8.85;;;;;;;;;;5019518;28;20206;-83
2023/07/03 11:41:49;;;;;;;9.35;8.55;;;;;;;;;;5031146;28;20203;-83
2023/07/03 11:44:17;;;;;;;9.98;8.98;;;;;;;;;;5031192;28;20210;-83
2023/07/03 11:46:44;;;;;;;10.00;9.05;;;;;;;;;;5030941;28;20238;-84
2023/07/03 11:49:12;;;;;;;10.48;9.40;;;;;;;;;;5030977;28;20684;-83
2023/07/03 11:51:40;;;;;;;10.48;9.43;;;;;;;;;;5030815;28;20294;-83
2023/07/03 11:54:18;;;;;;;10.52;9.63;;;;;;;;;;5031088;28;20204;-84
2023/07/03 11:56:49;;;;;;;10.07;9.20;;;;;;;;;;5029823;28;20249;-83
2023/07/03 11:59:37;;;;;;;10.73;9.45;;;;;;;;;;5030896;28;20242;-83
2023/07/03 12:02:44;;;;;;;10.40;9.27;;;;;;;;;;5020562;28;20264;-84
2023/07/03 12:05:11;;;;;;;10.10;9.30;;;;;;;;;;5019445;28;20289;-83
2023/07/03 12:07:51;;;;;;;8.95;8.15;;;;;;;;;;5030462;28;20651;-83
2023/07/03 12:10:46;;;;;;;9.88;9.07;;;;;;;;;;5030942;28;20219;-83
2023/07/03 12:13:52;;;;;;;9.80;8.88;;;;;;;;;;5018542;28;20217;-84
2023/07/03 12:16:21;;;;;;;8.85;7.93;;;;;;;;;;4989209;28;20257;-84
2023/07/03 12:19:00;;;;;;;9.15;8.35;;;;;;;;;;5021214;28;20286;-83
2023/07/03 12:21:34;;;;;;;9.23;8.40;;;;;;;;;;5030828;28;20198;-83
2023/07/03 12:24:00;;;;;;;10.05;9.15;;;;;;;;;;5030157;28;20195;-83
2023/07/03 12:26:27;;;;;;;10.77;9.57;;;;;;;;;;5030580;28;20207;-83
2023/07/03 12:29:04;;;;;;;10.00;9.05;;;;;;;;;;5030718;28;20315;-83
2023/07/03 12:31:31;;;;;;;9.52;8.63;;;;;;;;;;5030605;28;20206;-83
2023/07/03 12:33:59;;;;;;;10.50;9.45;;;;;;;;;;5030065;28;20665;-83
2023/07/03 12:36:29;;;;;;;10.38;9.05;;;;;;;;;;5031015;28;20202;-83
2023/07/03 12:38:56;;;;;;;10.82;9.73;;;;;;;;;;5030166;28;20693;-83
2023/07/03 12:41:28;;;;;;;9.60;8.75;;;;;;;;;;5030465;28;20210;-83
2023/07/03 12:43:56;;;;;;;9.50;8.63;;;;;;;;;;5030308;28;20207;-83
2023/07/03 12:46:29;;;;;;;8.98;8.18;;;;;;;;;;5030473;28;20233;-83
2023/07/03 12:49:04;;;;;;;8.52;7.80;;;;;;;;;;5030661;28;20321;-83
2023/07/03 12:51:36;;;;;;;8.68;7.82;;;;;;;;;;5030210;28;20229;-83
2023/07/03 12:54:03;;;;;;;9.50;8.60;;;;;;;;;;5030128;28;20245;-83
2023/07/03 12:56:30;;;;;;;10.05;9.15;;;;;;;;;;5030211;28;20620;-84
2023/07/03 12:58:57;;;;;;;9.00;7.97;;;;;;;;;;5030269;28;20210;-83
2023/07/03 13:01:25;;;;;;;9.13;8.23;;;;;;;;;;5030061;28;20229;-83
2023/07/03 13:03:54;;;;;;;7.53;6.90;;;;;;;;;;5030531;28;20249;-83
2023/07/03 13:06:23;;;;;;;8.38;7.55;;;;;;;;;;5030594;28;20202;-83
2023/07/03 13:08:51;;;;;;;7.78;7.05;;;;;;;;;;5031991;28;20606;-83
2023/07/03 13:11:31;;;;;;;10.25;8.35;;;;;;;;;;5034075;28;20203;-83
2023/07/03 13:14:07;;;;;;;9.32;8.43;;;;;;;;;;5033954;28;20202;-83
2023/07/03 13:16:34;;;;;;;9.68;8.77;;;;;;;;;;5033991;28;20226;-83
2023/07/03 13:19:03;;;;;;;9.43;8.60;;;;;;;;;;5033692;28;20675;-83
2023/07/03 13:21:30;;;;;;;8.88;7.90;;;;;;;;;;5033665;28;20199;-83
2023/07/03 13:24:06;;;;;;;8.80;8.00;;;;;;;;;;5033614;28;20202;-83
2023/07/03 13:26:32;;;;;;;8.10;7.43;;;;;;;;;;5033472;28;20626;-82
2023/07/03 13:29:01;;;;;;;8.40;7.63;;;;;;;;;;5033278;28;20226;-82
2023/07/03 13:31:30;;;;;;;9.07;8.15;;;;;;;;;;5033685;28;20210;-82
2023/07/03 13:34:06;;;;;;;9.63;8.75;;;;;;;;;;5033354;28;20743;-83
2023/07/03 13:36:37;;;;;;;8.82;8.10;;;;;;;;;;5033137;28;20577;-83
2023/07/03 13:39:07;;;;;;;12.27;8.60;;;;;;;;;;5020841;28;20289;-83
2023/07/03 13:41:34;;;;;;;9.40;8.52;;;;;;;;;;5033480;28;20199;-82
2023/07/03 13:44:03;;;;;;;9.23;8.38;;;;;;;;;;5033329;28;20207;-83
2023/07/03 13:46:29;;;;;;;9.10;8.23;;;;;;;;;;5032933;28;20673;-82
2023/07/03 13:48:56;;;;;;;8.52;7.72;;;;;;;;;;5033083;28;20231;-83
2023/07/03 13:51:24;;;;;;;9.68;8.77;;;;;;;;;;5033102;28;20205;-83
2023/07/03 13:53:55;;;;;;;10.00;8.27;;;;;;;;;;5033422;28;20203;-83
2023/07/03 13:56:22;;;;;;;9.95;9.05;;;;;;;;;;5032916;28;20198;-83
2023/07/03 13:58:48;;;;;;;10.18;9.27;;;;;;;;;;5032586;28;20210;-83
2023/07/03 14:01:15;;;;;;;9.15;8.38;;;;;;;;;;5033331;28;20233;-82
2023/07/03 14:03:42;;;;;;;9.40;8.60;;;;;;;;;;5033130;28;20199;-83
2023/07/03 14:06:09;;;;;;;9.25;8.45;;;;;;;;;;5032668;28;20225;-83
2023/07/03 14:08:38;;;;;;;8.85;7.95;;;;;;;;;;5032922;28;20226;-83
2023/07/03 14:11:05;;;;;;;8.73;7.93;;;;;;;;;;5032790;28;20210;-83
2023/07/03 14:13:32;;;;;;;8.73;7.97;;;;;;;;;;5022073;28;20262;-83
2023/07/03 14:15:59;;;;;;;9.18;8.32;;;;;;;;;;5030353;28;20222;-83
2023/07/03 14:18:26;;;;;;;8.70;7.93;;;;;;;;;;5032594;28;20202;-83
2023/07/03 14:20:55;;;;;;;8.57;7.88;;;;;;;;;;5031423;28;20751;-83
2023/07/03 14:23:21;;;;;;;8.93;8.13;;;;;;;;;;5032564;28;20202;-83
2023/07/03 14:25:50;;;;;;;10.77;9.77;;;;;;;;;;5034752;28;20207;-82
2023/07/03 14:28:17;;;;;;;8.82;8.00;;;;;;;;;;5034799;28;20258;-83
2023/07/03 14:30:44;;;;;;;8.85;7.95;;;;;;;;;;5032307;28;20210;-82
2023/07/03 14:33:11;;;;;;;8.80;8.00;;;;;;;;;;5020178;28;20260;-83
2023/07/03 14:35:38;;;;;;;9.00;8.13;;;;;;;;;;5030839;28;20219;-83
2023/07/03 14:38:06;;;;;;;9.07;8.30;;;;;;;;;;5011222;28;20214;-83
2023/07/03 14:40:33;;;;;;;8.98;8.07;;;;;;;;;;5016597;28;20233;-82